createdAt,value
2023-02-16T00:00:48.459Z,8.82
2023-02-16T00:01:48.431Z,8.82
2023-02-16T00:02:48.404Z,9.00
2023-02-16T00:03:48.443Z,8.96
2023-02-16T00:04:48.374Z,8.87
2023-02-16T00:05:48.324Z,8.92
2023-02-16T00:06:48.299Z,8.86
2023-02-16T00:07:48.272Z,8.96
2023-02-16T00:08:48.243Z,9.11
2023-02-16T00:09:48.220Z,8.95
2023-02-16T00:10:48.190Z,9.02
2023-02-16T00:11:48.164Z,9.09
2023-02-16T00:12:48.137Z,8.86
2023-02-16T00:13:48.160Z,9.03
2023-02-16T00:14:48.083Z,9.00
2023-02-16T00:15:48.179Z,8.96
2023-02-16T00:16:48.032Z,9.00
2023-02-16T00:17:48.003Z,9.03
2023-02-16T00:18:47.972Z,8.90
2023-02-16T00:19:47.945Z,8.81
2023-02-16T00:20:47.969Z,8.95
2023-02-16T00:21:47.892Z,8.90
2023-02-16T00:22:47.869Z,9.05
2023-02-16T00:23:47.842Z,8.99
2023-02-16T00:24:47.816Z,8.96
2023-02-16T00:25:47.789Z,8.96
2023-02-16T00:26:47.773Z,8.97
2023-02-16T00:27:47.733Z,8.90
2023-02-16T00:28:47.707Z,8.81
2023-02-16T00:29:47.682Z,8.90
2023-02-16T00:30:47.825Z,8.89
2023-02-16T00:31:47.855Z,8.93
2023-02-16T00:32:47.606Z,8.95
2023-02-16T00:33:47.578Z,8.93
2023-02-16T00:34:47.547Z,8.86
2023-02-16T00:35:47.534Z,8.99
2023-02-16T00:36:47.518Z,8.78
2023-02-16T00:37:47.476Z,8.79
2023-02-16T00:38:47.450Z,8.90
2023-02-16T00:39:47.417Z,9.03
2023-02-16T00:40:47.396Z,8.82
2023-02-16T00:41:47.362Z,8.90
2023-02-16T00:42:47.358Z,9.08
2023-02-16T00:43:47.310Z,8.87
2023-02-16T00:44:47.288Z,12.76
2023-02-16T00:45:47.255Z,8.79
2023-02-16T00:46:47.230Z,8.89
2023-02-16T00:47:47.210Z,8.84
2023-02-16T00:48:47.173Z,8.82
2023-02-16T00:49:47.148Z,8.69
2023-02-16T00:50:47.124Z,8.84
2023-02-16T00:51:47.094Z,8.41
2023-02-16T00:52:47.089Z,8.97
2023-02-16T00:53:47.038Z,8.74
2023-02-16T00:54:47.016Z,8.78
2023-02-16T00:55:46.997Z,8.79
2023-02-16T00:56:46.971Z,8.78
2023-02-16T00:57:46.935Z,8.89
2023-02-16T00:58:46.909Z,8.68
2023-02-16T00:59:46.883Z,8.61
2023-02-16T01:00:46.853Z,8.68
2023-02-16T01:01:46.873Z,8.64
2023-02-16T01:02:46.802Z,8.71
2023-02-16T01:03:46.773Z,8.68
2023-02-16T01:04:46.789Z,8.61
2023-02-16T01:05:46.713Z,8.53
2023-02-16T01:06:46.694Z,8.68
2023-02-16T01:07:46.662Z,8.50
2023-02-16T01:08:46.675Z,8.60
2023-02-16T01:09:46.607Z,8.72
2023-02-16T01:10:46.578Z,8.11
2023-02-16T01:11:46.550Z,8.60
2023-02-16T01:12:46.526Z,8.59
2023-02-16T01:13:46.496Z,8.66
2023-02-16T01:14:46.488Z,8.69
2023-02-16T01:15:46.543Z,8.49
2023-02-16T01:16:46.415Z,8.61
2023-02-16T01:17:46.386Z,8.63
2023-02-16T01:18:46.361Z,8.61
2023-02-16T01:19:46.358Z,8.53
2023-02-16T01:20:46.309Z,8.53
2023-02-16T01:21:46.277Z,8.61
2023-02-16T01:22:46.253Z,8.68
2023-02-16T01:23:46.222Z,8.71
2023-02-16T01:24:46.212Z,8.59
2023-02-16T01:25:46.172Z,8.59
2023-02-16T01:26:46.145Z,8.57
2023-02-16T01:27:46.117Z,8.44
2023-02-16T01:28:46.096Z,8.68
2023-02-16T01:29:46.060Z,8.53
2023-02-16T01:30:46.046Z,8.54
2023-02-16T01:31:46.168Z,8.53
2023-02-16T01:32:45.981Z,8.36
2023-02-16T01:33:45.953Z,8.53
2023-02-16T01:34:45.925Z,8.44
2023-02-16T01:35:45.898Z,8.54
2023-02-16T01:36:45.878Z,8.53
2023-02-16T01:37:45.848Z,8.50
2023-02-16T01:38:45.846Z,8.66
2023-02-16T01:39:45.799Z,8.57
2023-02-16T01:40:45.785Z,8.45
2023-02-16T01:41:45.739Z,8.49
2023-02-16T01:42:45.708Z,8.24
2023-02-16T01:43:45.684Z,8.44
2023-02-16T01:44:45.652Z,8.45
2023-02-16T01:45:45.631Z,8.49
2023-02-16T01:46:45.664Z,8.45
2023-02-16T01:47:45.574Z,8.46
2023-02-16T01:48:45.545Z,8.36
2023-02-16T01:49:45.519Z,8.60
2023-02-16T01:50:45.500Z,8.49
2023-02-16T01:51:45.465Z,8.46
2023-02-16T01:52:45.453Z,8.38
2023-02-16T01:53:45.412Z,8.35
2023-02-16T01:54:45.408Z,8.34
2023-02-16T01:55:45.358Z,8.64
2023-02-16T01:56:45.352Z,8.35
2023-02-16T01:57:45.311Z,8.28
2023-02-16T01:58:45.273Z,8.21
2023-02-16T01:59:45.248Z,8.34
2023-02-16T02:00:45.218Z,8.21
2023-02-16T02:01:45.295Z,8.38
2023-02-16T02:02:45.210Z,8.18
2023-02-16T02:03:45.142Z,8.28
2023-02-16T02:04:45.114Z,8.41
2023-02-16T02:05:45.089Z,8.46
2023-02-16T02:06:45.066Z,8.23
2023-02-16T02:07:45.062Z,8.44
2023-02-16T02:08:45.005Z,8.24
2023-02-16T02:09:44.974Z,8.26
2023-02-16T02:10:44.949Z,8.31
2023-02-16T02:11:44.927Z,8.42
2023-02-16T02:12:44.961Z,8.36
2023-02-16T02:13:44.866Z,8.36
2023-02-16T02:14:44.848Z,8.36
2023-02-16T02:15:44.828Z,8.21
2023-02-16T02:16:44.783Z,8.18
2023-02-16T02:17:44.756Z,8.21
2023-02-16T02:18:44.736Z,8.20
2023-02-16T02:19:44.704Z,8.24
2023-02-16T02:20:44.683Z,8.14
2023-02-16T02:21:44.669Z,8.27
2023-02-16T02:22:44.624Z,8.28
2023-02-16T02:23:44.594Z,8.38
2023-02-16T02:24:44.563Z,8.26
2023-02-16T02:25:44.537Z,8.31
2023-02-16T02:26:44.508Z,8.03
2023-02-16T02:27:44.486Z,8.21
2023-02-16T02:28:44.474Z,8.16
2023-02-16T02:29:44.428Z,8.16
2023-02-16T02:30:44.450Z,8.35
2023-02-16T02:31:44.465Z,8.27
2023-02-16T02:32:44.346Z,8.05
2023-02-16T02:33:44.320Z,8.23
2023-02-16T02:34:44.293Z,8.14
2023-02-16T02:35:44.269Z,8.14
2023-02-16T02:36:44.236Z,8.35
2023-02-16T02:37:44.209Z,8.31
2023-02-16T02:38:44.186Z,8.09
2023-02-16T02:39:44.156Z,7.91
2023-02-16T02:40:44.126Z,8.24
2023-02-16T02:41:44.104Z,8.17
2023-02-16T02:42:44.069Z,8.08
2023-02-16T02:43:44.065Z,8.03
2023-02-16T02:44:44.090Z,8.16
2023-02-16T02:45:43.989Z,8.32
2023-02-16T02:46:43.979Z,8.17
2023-02-16T02:47:43.937Z,8.27
2023-02-16T02:48:43.914Z,8.21
2023-02-16T02:49:43.883Z,8.08
2023-02-16T02:50:43.852Z,8.20
2023-02-16T02:51:43.828Z,8.11
2023-02-16T02:52:43.794Z,8.27
2023-02-16T02:53:43.772Z,8.05
2023-02-16T02:54:43.747Z,7.96
2023-02-16T02:55:43.716Z,8.17
2023-02-16T02:56:43.688Z,8.18
2023-02-16T02:57:43.690Z,8.14
2023-02-16T02:58:43.632Z,8.13
2023-02-16T02:59:43.606Z,8.09
2023-02-16T03:00:43.683Z,7.84
2023-02-16T03:01:43.562Z,7.87
2023-02-16T03:02:43.529Z,8.21
2023-02-16T03:03:43.496Z,8.13
2023-02-16T03:04:43.469Z,8.18
2023-02-16T03:05:43.441Z,8.20
2023-02-16T03:06:43.411Z,8.09
2023-02-16T03:07:43.388Z,8.16
2023-02-16T03:08:43.365Z,7.99
2023-02-16T03:09:43.333Z,8.13
2023-02-16T03:10:43.303Z,8.11
2023-02-16T03:11:43.297Z,8.09
2023-02-16T03:12:43.285Z,8.02
2023-02-16T03:13:43.223Z,7.98
2023-02-16T03:14:43.193Z,7.93
2023-02-16T03:15:43.167Z,7.98
2023-02-16T03:16:43.284Z,8.02
2023-02-16T03:17:43.113Z,8.26
2023-02-16T03:18:43.082Z,8.03
2023-02-16T03:19:43.053Z,7.98
2023-02-16T03:20:43.027Z,8.03
2023-02-16T03:21:42.997Z,8.08
2023-02-16T03:22:42.971Z,8.08
2023-02-16T03:23:42.946Z,8.03
2023-02-16T03:24:42.917Z,7.83
2023-02-16T03:25:42.891Z,8.03
2023-02-16T03:26:42.860Z,7.88
2023-02-16T03:27:42.835Z,8.05
2023-02-16T03:28:42.809Z,8.05
2023-02-16T03:29:42.786Z,7.99
2023-02-16T03:30:42.847Z,7.95
2023-02-16T03:31:42.739Z,7.88
2023-02-16T03:32:42.707Z,7.91
2023-02-16T03:33:42.669Z,7.95
2023-02-16T03:34:42.644Z,7.77
2023-02-16T03:35:42.643Z,7.85
2023-02-16T03:36:42.582Z,7.91
2023-02-16T03:37:42.558Z,8.11
2023-02-16T03:38:42.532Z,7.75
2023-02-16T03:39:42.502Z,7.90
2023-02-16T03:40:42.471Z,7.99
2023-02-16T03:41:42.447Z,7.95
2023-02-16T03:42:42.420Z,8.11
2023-02-16T03:43:42.395Z,7.95
2023-02-16T03:44:42.363Z,7.98
2023-02-16T03:45:42.346Z,7.80
2023-02-16T03:46:42.310Z,7.88
2023-02-16T03:47:42.285Z,7.81
2023-02-16T03:48:42.268Z,7.91
2023-02-16T03:49:42.227Z,7.81
2023-02-16T03:50:42.198Z,8.02
2023-02-16T03:51:42.174Z,7.88
2023-02-16T03:52:42.143Z,7.77
2023-02-16T03:53:42.117Z,7.72
2023-02-16T03:54:42.093Z,7.72
2023-02-16T03:55:42.067Z,7.87
2023-02-16T03:56:42.037Z,7.85
2023-02-16T03:57:42.009Z,7.77
2023-02-16T03:58:41.998Z,7.72
2023-02-16T03:59:41.964Z,7.91
2023-02-16T04:00:41.939Z,7.84
2023-02-16T04:01:41.947Z,7.69
2023-02-16T04:02:41.872Z,7.77
2023-02-16T04:03:41.855Z,7.81
2023-02-16T04:04:41.845Z,7.88
2023-02-16T04:05:41.797Z,7.81
2023-02-16T04:06:41.763Z,7.78
2023-02-16T04:07:41.736Z,7.85
2023-02-16T04:08:41.724Z,7.80
2023-02-16T04:09:41.685Z,7.90
2023-02-16T04:10:41.664Z,7.75
2023-02-16T04:11:41.627Z,7.81
2023-02-16T04:12:41.601Z,7.91
2023-02-16T04:13:41.572Z,7.83
2023-02-16T04:14:43.677Z,7.96
2023-02-16T04:15:41.532Z,7.83
2023-02-16T04:16:41.523Z,7.69
2023-02-16T04:17:41.460Z,7.78
2023-02-16T04:18:41.433Z,7.98
2023-02-16T04:19:41.409Z,7.67
2023-02-16T04:20:41.398Z,7.67
2023-02-16T04:21:41.351Z,7.70
2023-02-16T04:22:41.333Z,7.87
2023-02-16T04:23:41.304Z,7.91
2023-02-16T04:24:41.266Z,7.88
2023-02-16T04:25:41.239Z,7.88
2023-02-16T04:26:41.211Z,7.93
2023-02-16T04:27:41.194Z,7.80
2023-02-16T04:28:41.157Z,7.96
2023-02-16T04:29:41.129Z,7.96
2023-02-16T04:30:41.276Z,7.53
2023-02-16T04:31:41.274Z,7.77
2023-02-16T04:32:41.043Z,7.77
2023-02-16T04:33:41.022Z,11.08
2023-02-16T04:34:40.998Z,7.83
2023-02-16T04:35:40.963Z,7.93
2023-02-16T04:36:40.952Z,7.90
2023-02-16T04:37:40.938Z,7.84
2023-02-16T04:38:40.877Z,7.78
2023-02-16T04:39:40.856Z,7.87
2023-02-16T04:40:40.822Z,7.84
2023-02-16T04:41:40.799Z,7.77
2023-02-16T04:42:40.768Z,7.85
2023-02-16T04:43:40.741Z,7.81
2023-02-16T04:44:40.714Z,7.87
2023-02-16T04:45:40.685Z,7.74
2023-02-16T04:46:40.655Z,7.75
2023-02-16T04:47:40.648Z,7.81
2023-02-16T04:48:40.602Z,7.80
2023-02-16T04:49:40.580Z,7.69
2023-02-16T04:50:40.550Z,7.80
2023-02-16T04:51:40.520Z,7.87
2023-02-16T04:52:40.511Z,7.75
2023-02-16T04:53:40.467Z,7.95
2023-02-16T04:54:40.434Z,7.78
2023-02-16T04:55:40.408Z,7.95
2023-02-16T04:56:40.387Z,7.93
2023-02-16T04:57:40.356Z,7.80
2023-02-16T04:58:40.331Z,7.78
2023-02-16T04:59:40.297Z,7.77
2023-02-16T05:00:40.267Z,7.96
2023-02-16T05:01:40.306Z,7.85
2023-02-16T05:02:40.241Z,7.75
2023-02-16T05:03:40.185Z,7.75
2023-02-16T05:04:40.227Z,7.91
2023-02-16T05:05:40.131Z,7.91
2023-02-16T05:06:40.102Z,7.96
2023-02-16T05:07:40.078Z,7.84
2023-02-16T05:08:40.064Z,7.83
2023-02-16T05:09:40.033Z,7.75
2023-02-16T05:10:39.995Z,7.59
2023-02-16T05:11:39.967Z,7.72
2023-02-16T05:12:39.944Z,7.80
2023-02-16T05:13:41.760Z,7.84
2023-02-16T05:14:39.882Z,7.75
2023-02-16T05:15:39.866Z,8.05
2023-02-16T05:16:39.825Z,7.90
2023-02-16T05:17:39.799Z,7.96
2023-02-16T05:18:39.769Z,7.96
2023-02-16T05:19:39.746Z,7.98
2023-02-16T05:20:39.722Z,7.77
2023-02-16T05:21:39.706Z,7.95
2023-02-16T05:22:39.659Z,7.90
2023-02-16T05:23:39.639Z,7.99
2023-02-16T05:24:39.635Z,7.90
2023-02-16T05:25:39.580Z,7.93
2023-02-16T05:26:39.549Z,7.98
2023-02-16T05:27:39.534Z,7.83
2023-02-16T05:28:39.492Z,7.88
2023-02-16T05:29:39.470Z,8.13
2023-02-16T05:30:39.513Z,7.99
2023-02-16T05:31:39.513Z,7.99
2023-02-16T05:32:39.382Z,7.90
2023-02-16T05:33:39.370Z,8.01
2023-02-16T05:34:39.340Z,7.96
2023-02-16T05:35:39.302Z,7.95
2023-02-16T05:36:39.302Z,7.88
2023-02-16T05:37:42.337Z,7.90
2023-02-16T05:38:39.227Z,8.01
2023-02-16T05:39:39.197Z,8.03
2023-02-16T05:40:39.242Z,7.98
2023-02-16T05:41:39.142Z,7.64
2023-02-16T05:42:39.119Z,7.83
2023-02-16T05:43:39.085Z,7.91
2023-02-16T05:44:39.066Z,7.99
2023-02-16T05:45:39.040Z,8.05
2023-02-16T05:46:39.064Z,7.99
2023-02-16T05:47:38.976Z,7.85
2023-02-16T05:48:38.948Z,7.83
2023-02-16T05:49:38.932Z,3.61
2023-02-16T05:50:38.893Z,7.88
2023-02-16T05:51:38.868Z,7.83
2023-02-16T05:52:38.843Z,7.84
2023-02-16T05:53:38.811Z,8.08
2023-02-16T05:54:38.785Z,8.08
2023-02-16T05:55:38.756Z,7.96
2023-02-16T05:56:38.754Z,8.09
2023-02-16T05:57:38.713Z,8.08
2023-02-16T05:58:38.687Z,8.01
2023-02-16T05:59:38.642Z,7.90
2023-02-16T06:00:38.622Z,7.90
2023-02-16T06:01:38.586Z,8.01
2023-02-16T06:02:38.674Z,7.95
2023-02-16T06:03:38.608Z,7.90
2023-02-16T06:04:38.506Z,8.05
2023-02-16T06:05:38.477Z,7.93
2023-02-16T06:06:38.464Z,8.05
2023-02-16T06:07:38.463Z,8.09
2023-02-16T06:08:38.396Z,7.99
2023-02-16T06:09:38.368Z,7.95
2023-02-16T06:10:38.349Z,8.01
2023-02-16T06:11:38.315Z,8.02
2023-02-16T06:12:38.306Z,8.14
2023-02-16T06:13:38.257Z,8.08
2023-02-16T06:14:38.240Z,8.06
2023-02-16T06:15:38.228Z,8.08
2023-02-16T06:16:38.181Z,8.14
2023-02-16T06:17:38.151Z,8.13
2023-02-16T06:18:38.124Z,8.17
2023-02-16T06:19:38.091Z,8.03
2023-02-16T06:20:38.067Z,7.98
2023-02-16T06:21:38.042Z,8.20
2023-02-16T06:22:38.012Z,8.09
2023-02-16T06:23:37.982Z,7.85
2023-02-16T06:24:37.955Z,7.55
2023-02-16T06:25:37.930Z,8.17
2023-02-16T06:26:37.907Z,8.09
2023-02-16T06:27:37.873Z,8.20
2023-02-16T06:28:37.867Z,7.55
2023-02-16T06:29:37.843Z,8.17
2023-02-16T06:30:37.789Z,8.20
2023-02-16T06:31:37.901Z,8.18
2023-02-16T06:32:37.767Z,8.20
2023-02-16T06:33:37.708Z,8.13
2023-02-16T06:34:37.678Z,8.26
2023-02-16T06:35:37.649Z,8.08
2023-02-16T06:36:37.623Z,8.01
2023-02-16T06:37:37.601Z,8.28
2023-02-16T06:38:37.577Z,8.31
2023-02-16T06:39:37.551Z,8.24
2023-02-16T06:40:37.516Z,8.14
2023-02-16T06:41:37.491Z,8.18
2023-02-16T06:42:37.464Z,8.18
2023-02-16T06:43:37.431Z,8.17
2023-02-16T06:44:37.425Z,8.24
2023-02-16T06:45:37.376Z,8.26
2023-02-16T06:46:37.413Z,8.31
2023-02-16T06:47:37.326Z,8.18
2023-02-16T06:48:37.307Z,8.21
2023-02-16T06:49:37.269Z,8.06
2023-02-16T06:50:37.239Z,8.24
2023-02-16T06:51:37.213Z,8.31
2023-02-16T06:52:37.182Z,8.41
2023-02-16T06:53:37.235Z,8.23
2023-02-16T06:54:37.128Z,8.24
2023-02-16T06:55:37.118Z,8.27
2023-02-16T06:56:38.009Z,8.34
2023-02-16T06:57:37.044Z,8.35
2023-02-16T06:58:37.021Z,8.28
2023-02-16T06:59:36.992Z,8.21
2023-02-16T07:00:37.045Z,8.50
2023-02-16T07:01:36.936Z,8.27
2023-02-16T07:02:36.910Z,8.16
2023-02-16T07:03:36.976Z,8.28
2023-02-16T07:04:36.853Z,8.27
2023-02-16T07:05:36.838Z,8.27
2023-02-16T07:06:36.855Z,8.20
2023-02-16T07:07:36.771Z,8.38
2023-02-16T07:08:36.744Z,8.23
2023-02-16T07:09:36.716Z,8.36
2023-02-16T07:10:49.071Z,8.17
2023-02-16T07:11:36.660Z,8.31
2023-02-16T07:12:36.633Z,8.38
2023-02-16T07:13:36.635Z,8.45
2023-02-16T07:14:36.580Z,8.26
2023-02-16T07:15:36.552Z,8.39
2023-02-16T07:16:36.633Z,8.09
2023-02-16T07:17:36.493Z,7.80
2023-02-16T07:18:36.473Z,8.13
2023-02-16T07:19:36.442Z,8.35
2023-02-16T07:20:36.415Z,8.31
2023-02-16T07:21:36.405Z,8.35
2023-02-16T07:22:36.358Z,8.28
2023-02-16T07:23:36.328Z,8.41
2023-02-16T07:24:36.301Z,8.27
2023-02-16T07:25:37.323Z,8.27
2023-02-16T07:26:36.249Z,8.31
2023-02-16T07:27:36.218Z,8.36
2023-02-16T07:28:36.195Z,8.32
2023-02-16T07:29:36.165Z,8.27
2023-02-16T07:30:36.233Z,8.49
2023-02-16T07:31:36.173Z,8.34
2023-02-16T07:32:36.151Z,8.31
2023-02-16T07:33:36.057Z,8.41
2023-02-16T07:34:36.029Z,8.38
2023-02-16T07:35:35.998Z,8.28
2023-02-16T07:36:35.977Z,8.44
2023-02-16T07:37:35.945Z,8.45
2023-02-16T07:38:35.922Z,8.54
2023-02-16T07:39:35.896Z,8.53
2023-02-16T07:40:35.863Z,8.39
2023-02-16T07:41:35.840Z,8.45
2023-02-16T07:42:35.822Z,8.49
2023-02-16T07:43:35.781Z,8.34
2023-02-16T07:44:35.752Z,8.57
2023-02-16T07:45:35.743Z,8.53
2023-02-16T07:46:35.708Z,8.41
2023-02-16T07:47:35.667Z,8.64
2023-02-16T07:48:35.717Z,8.61
2023-02-16T07:49:35.613Z,8.44
2023-02-16T07:50:35.599Z,8.60
2023-02-16T07:51:35.557Z,8.71
2023-02-16T07:52:35.532Z,8.31
2023-02-16T07:53:35.507Z,8.32
2023-02-16T07:54:35.483Z,8.39
2023-02-16T07:55:35.448Z,8.44
2023-02-16T07:56:35.420Z,8.44
2023-02-16T07:57:35.394Z,8.57
2023-02-16T07:58:35.366Z,8.57
2023-02-16T07:59:35.345Z,8.54
2023-02-16T08:00:35.323Z,8.52
2023-02-16T08:01:35.284Z,8.61
2023-02-16T08:02:35.408Z,8.53
2023-02-16T08:03:35.276Z,8.24
2023-02-16T08:04:35.225Z,8.63
2023-02-16T08:05:35.338Z,8.52
2023-02-16T08:06:35.196Z,8.61
2023-02-16T08:07:35.329Z,8.68
2023-02-16T08:08:35.094Z,8.63
2023-02-16T08:09:35.062Z,8.64
2023-02-16T08:10:35.042Z,8.72
2023-02-16T08:11:35.009Z,8.61
2023-02-16T08:12:34.983Z,8.68
2023-02-16T08:13:34.959Z,8.82
2023-02-16T08:14:34.935Z,8.79
2023-02-16T08:15:34.899Z,8.79
2023-02-16T08:16:34.905Z,8.72
2023-02-16T08:17:34.849Z,8.89
2023-02-16T08:18:34.819Z,8.79
2023-02-16T08:19:34.800Z,8.72
2023-02-16T08:20:57.329Z,8.69
2023-02-16T08:21:34.740Z,8.77
2023-02-16T08:22:34.714Z,8.75
2023-02-16T08:23:34.684Z,8.77
2023-02-16T08:24:34.659Z,8.56
2023-02-16T08:25:34.632Z,8.64
2023-02-16T08:26:34.625Z,8.75
2023-02-16T08:27:34.575Z,8.68
2023-02-16T08:28:34.556Z,8.71
2023-02-16T08:29:34.520Z,8.84
2023-02-16T08:30:34.648Z,8.97
2023-02-16T08:31:34.621Z,8.60
2023-02-16T08:32:34.442Z,8.74
2023-02-16T08:33:34.430Z,8.78
2023-02-16T08:34:34.385Z,8.81
2023-02-16T08:35:34.360Z,8.46
2023-02-16T08:36:34.353Z,8.87
2023-02-16T08:37:34.306Z,8.69
2023-02-16T08:38:34.283Z,8.79
2023-02-16T08:39:34.250Z,8.86
2023-02-16T08:40:34.225Z,8.69
2023-02-16T08:41:34.199Z,8.81
2023-02-16T08:42:34.168Z,8.87
2023-02-16T08:43:34.142Z,8.78
2023-02-16T08:44:34.181Z,8.92
2023-02-16T08:45:34.129Z,8.72
2023-02-16T08:46:34.058Z,8.86
2023-02-16T08:47:34.165Z,8.92
2023-02-16T08:48:34.003Z,8.89
2023-02-16T08:49:33.987Z,9.08
2023-02-16T08:50:33.950Z,8.86
2023-02-16T08:51:33.917Z,9.00
2023-02-16T08:52:33.914Z,8.74
2023-02-16T08:53:33.864Z,8.84
2023-02-16T08:54:33.838Z,8.84
2023-02-16T08:55:33.813Z,8.77
2023-02-16T08:56:33.783Z,8.96
2023-02-16T08:57:33.750Z,8.87
2023-02-16T08:58:33.729Z,8.95
2023-02-16T08:59:33.785Z,8.87
2023-02-16T09:00:33.676Z,9.02
2023-02-16T09:01:33.764Z,8.93
2023-02-16T09:02:33.742Z,9.05
2023-02-16T09:03:33.649Z,8.86
2023-02-16T09:04:33.608Z,9.00
2023-02-16T09:05:33.546Z,8.97
2023-02-16T09:06:33.507Z,8.89
2023-02-16T09:07:33.491Z,9.05
2023-02-16T09:08:33.482Z,17.10
2023-02-16T09:09:33.430Z,9.11
2023-02-16T09:10:33.405Z,8.92
2023-02-16T09:11:33.375Z,9.09
2023-02-16T09:12:33.368Z,8.97
2023-02-16T09:13:33.355Z,9.19
2023-02-16T09:14:33.297Z,9.26
2023-02-16T09:15:33.296Z,8.82
2023-02-16T09:16:33.283Z,9.05
2023-02-16T09:17:33.218Z,9.12
2023-02-16T09:18:33.182Z,9.15
2023-02-16T09:19:33.197Z,9.36
2023-02-16T09:20:33.136Z,9.26
2023-02-16T09:21:33.134Z,9.64
2023-02-16T09:22:33.090Z,9.31
2023-02-16T09:23:33.050Z,12.95
2023-02-16T09:24:33.047Z,9.44
2023-02-16T09:25:32.996Z,9.22
2023-02-16T09:26:33.006Z,9.36
2023-02-16T09:27:32.962Z,9.31
2023-02-16T09:28:32.942Z,9.47
2023-02-16T09:29:32.932Z,9.48
2023-02-16T09:30:33.107Z,9.42
2023-02-16T09:31:33.077Z,9.40
2023-02-16T09:32:32.805Z,9.40
2023-02-16T09:33:32.822Z,9.49
2023-02-16T09:34:32.830Z,9.55
2023-02-16T09:35:32.790Z,9.55
2023-02-16T09:36:32.726Z,9.30
2023-02-16T09:37:32.670Z,9.49
2023-02-16T09:38:32.655Z,9.62
2023-02-16T09:39:32.644Z,9.42
2023-02-16T09:40:32.726Z,9.21
2023-02-16T09:41:32.562Z,9.51
2023-02-16T09:42:32.533Z,9.40
2023-02-16T09:43:32.505Z,9.49
2023-02-16T09:44:32.478Z,9.56
2023-02-16T09:45:32.463Z,9.56
2023-02-16T09:46:32.470Z,9.62
2023-02-16T09:47:32.433Z,9.62
2023-02-16T09:48:32.382Z,9.74
2023-02-16T09:49:32.354Z,9.69
2023-02-16T09:50:52.746Z,9.19
2023-02-16T09:51:34.658Z,9.47
2023-02-16T09:52:32.267Z,9.70
2023-02-16T09:53:32.253Z,9.62
2023-02-16T09:54:32.209Z,9.76
2023-02-16T09:55:32.182Z,9.67
2023-02-16T09:56:32.202Z,9.67
2023-02-16T09:57:32.126Z,9.92
2023-02-16T09:58:32.110Z,9.69
2023-02-16T09:59:32.082Z,9.73
2023-02-16T10:00:32.059Z,9.85
2023-02-16T10:01:32.113Z,9.81
2023-02-16T10:02:32.082Z,9.81
2023-02-16T10:03:31.969Z,9.80
2023-02-16T10:04:31.943Z,9.72
2023-02-16T10:05:31.918Z,9.77
2023-02-16T10:06:31.896Z,9.63
2023-02-16T10:07:31.861Z,9.81
2023-02-16T10:08:31.834Z,9.85
2023-02-16T10:09:31.816Z,9.84
2023-02-16T10:10:31.807Z,9.73
2023-02-16T10:11:31.754Z,9.84
2023-02-16T10:12:31.746Z,9.84
2023-02-16T10:13:31.733Z,9.85
2023-02-16T10:14:31.719Z,9.56
2023-02-16T10:15:31.673Z,9.82
2023-02-16T10:16:31.622Z,9.82
2023-02-16T10:17:31.594Z,9.70
2023-02-16T10:18:31.567Z,9.85
2023-02-16T10:19:31.546Z,9.80
2023-02-16T10:20:31.511Z,9.73
2023-02-16T10:21:31.546Z,9.80
2023-02-16T10:22:31.468Z,9.77
2023-02-16T10:23:31.474Z,9.70
2023-02-16T10:24:31.480Z,9.81
2023-02-16T10:25:31.439Z,9.73
2023-02-16T10:26:31.399Z,9.94
2023-02-16T10:27:31.336Z,9.80
2023-02-16T10:28:31.318Z,9.69
2023-02-16T10:29:31.294Z,9.90
2023-02-16T10:30:31.487Z,9.82
2023-02-16T10:31:31.363Z,9.82
2023-02-16T10:32:31.440Z,9.91
2023-02-16T10:33:31.171Z,9.91
2023-02-16T10:34:31.202Z,9.77
2023-02-16T10:35:31.453Z,9.74
2023-02-16T10:36:31.088Z,9.88
2023-02-16T10:37:31.126Z,9.87
2023-02-16T10:38:31.039Z,9.81
2023-02-16T10:39:31.036Z,9.90
2023-02-16T10:40:30.995Z,9.92
2023-02-16T10:41:30.964Z,9.73
2023-02-16T10:42:30.933Z,9.87
2023-02-16T10:43:30.916Z,9.81
2023-02-16T10:44:30.908Z,9.84
2023-02-16T10:45:30.942Z,9.88
2023-02-16T10:46:30.870Z,10.00
2023-02-16T10:47:30.804Z,9.97
2023-02-16T10:48:30.776Z,9.66
2023-02-16T10:49:30.750Z,9.97
2023-02-16T10:50:30.734Z,10.03
2023-02-16T10:51:30.699Z,9.92
2023-02-16T10:52:30.670Z,9.97
2023-02-16T10:53:30.643Z,9.92
2023-02-16T10:54:30.617Z,9.85
2023-02-16T10:55:30.597Z,10.02
2023-02-16T10:56:30.937Z,10.12
2023-02-16T10:57:30.604Z,10.03
2023-02-16T10:58:30.513Z,9.95
2023-02-16T10:59:30.489Z,10.10
2023-02-16T11:00:30.495Z,10.05
2023-02-16T11:01:30.488Z,10.15
2023-02-16T11:02:30.415Z,10.21
2023-02-16T11:03:30.412Z,9.59
2023-02-16T11:04:30.396Z,10.25
2023-02-16T11:05:30.344Z,10.12
2023-02-16T11:06:30.322Z,9.59
2023-02-16T11:07:30.344Z,10.09
2023-02-16T11:08:30.594Z,10.05
2023-02-16T11:09:30.308Z,10.17
2023-02-16T11:10:30.218Z,10.15
2023-02-16T11:11:30.258Z,10.21
2023-02-16T11:12:30.161Z,10.21
2023-02-16T11:13:30.141Z,10.15
2023-02-16T11:14:30.093Z,10.28
2023-02-16T11:15:30.074Z,10.24
2023-02-16T11:16:30.100Z,10.27
2023-02-16T11:17:30.017Z,10.18
2023-02-16T11:18:29.991Z,10.28
2023-02-16T11:19:29.994Z,10.34
2023-02-16T11:20:29.935Z,10.23
2023-02-16T11:21:29.917Z,10.30
2023-02-16T11:22:29.895Z,10.17
2023-02-16T11:23:30.083Z,9.97
2023-02-16T11:24:29.842Z,10.23
2023-02-16T11:25:29.862Z,10.30
2023-02-16T11:26:29.809Z,10.33
2023-02-16T11:27:29.758Z,10.27
2023-02-16T11:28:32.353Z,10.45
2023-02-16T11:29:29.702Z,10.34
2023-02-16T11:30:29.858Z,10.31
2023-02-16T11:31:29.831Z,10.25
2023-02-16T11:32:29.660Z,9.95
2023-02-16T11:33:29.600Z,10.57
2023-02-16T11:34:29.573Z,10.38
2023-02-16T11:35:29.560Z,10.20
2023-02-16T11:36:29.520Z,10.41
2023-02-16T11:37:29.498Z,10.49
2023-02-16T11:38:29.498Z,10.45
2023-02-16T11:39:29.447Z,10.45
2023-02-16T11:40:29.415Z,10.58
2023-02-16T11:41:29.389Z,10.34
2023-02-16T11:42:29.385Z,10.05
2023-02-16T11:43:29.342Z,10.48
2023-02-16T11:44:29.330Z,10.41
2023-02-16T11:45:31.321Z,10.55
2023-02-16T11:46:29.346Z,10.51
2023-02-16T11:47:29.265Z,10.49
2023-02-16T11:48:29.235Z,10.55
2023-02-16T11:49:29.173Z,10.33
2023-02-16T11:50:29.184Z,10.43
2023-02-16T11:51:29.129Z,10.48
2023-02-16T11:52:29.120Z,10.33
2023-02-16T11:53:29.073Z,10.38
2023-02-16T11:54:29.047Z,10.45
2023-02-16T11:55:29.066Z,10.57
2023-02-16T11:56:29.001Z,10.53
2023-02-16T11:57:29.013Z,10.48
2023-02-16T11:58:28.970Z,10.51
2023-02-16T11:59:28.916Z,10.49
2023-02-16T12:00:28.906Z,10.39
2023-02-16T12:01:28.883Z,10.39
2023-02-16T12:02:28.894Z,10.43
2023-02-16T12:03:31.356Z,10.55
2023-02-16T12:04:28.823Z,10.38
2023-02-16T12:05:28.787Z,10.53
2023-02-16T12:06:28.757Z,10.49
2023-02-16T12:07:28.708Z,10.41
2023-02-16T12:08:28.698Z,10.39
2023-02-16T12:09:30.945Z,10.64
2023-02-16T12:10:28.642Z,10.48
2023-02-16T12:11:28.610Z,10.34
2023-02-16T12:12:28.643Z,10.41
2023-02-16T12:13:28.565Z,10.31
2023-02-16T12:14:28.531Z,10.27
2023-02-16T12:15:28.503Z,10.45
2023-02-16T12:16:28.497Z,10.53
2023-02-16T12:17:28.452Z,10.59
2023-02-16T12:18:28.434Z,10.45
2023-02-16T12:19:28.398Z,10.65
2023-02-16T12:20:28.394Z,10.68
2023-02-16T12:21:28.356Z,10.62
2023-02-16T12:22:28.317Z,10.31
2023-02-16T12:23:28.291Z,10.49
2023-02-16T12:24:28.284Z,10.42
2023-02-16T12:25:28.243Z,10.58
2023-02-16T12:26:28.222Z,10.33
2023-02-16T12:27:28.190Z,10.49
2023-02-16T12:28:28.167Z,10.53
2023-02-16T12:29:28.135Z,10.67
2023-02-16T12:30:28.171Z,10.51
2023-02-16T12:31:28.129Z,10.12
2023-02-16T12:32:28.057Z,10.58
2023-02-16T12:33:28.032Z,10.64
2023-02-16T12:34:28.032Z,10.59
2023-02-16T12:35:27.985Z,10.55
2023-02-16T12:36:27.972Z,10.59
2023-02-16T12:37:27.924Z,10.49
2023-02-16T12:38:27.899Z,10.46
2023-02-16T12:39:27.969Z,10.42
2023-02-16T12:40:27.850Z,10.48
2023-02-16T12:41:27.822Z,10.62
2023-02-16T12:42:27.796Z,10.42
2023-02-16T12:43:27.775Z,10.61
2023-02-16T12:44:27.745Z,10.71
2023-02-16T12:45:27.728Z,10.68
2023-02-16T12:46:27.693Z,10.61
2023-02-16T12:47:27.676Z,10.62
2023-02-16T12:48:27.640Z,10.65
2023-02-16T12:49:27.621Z,10.55
2023-02-16T12:50:27.603Z,10.59
2023-02-16T12:51:27.593Z,10.62
2023-02-16T12:52:27.552Z,10.51
2023-02-16T12:53:27.522Z,10.57
2023-02-16T12:54:27.495Z,10.49
2023-02-16T12:55:27.462Z,10.31
2023-02-16T12:56:27.464Z,10.62
2023-02-16T12:57:29.400Z,10.53
2023-02-16T12:58:27.491Z,10.48
2023-02-16T12:59:27.381Z,10.64
2023-02-16T13:00:27.338Z,10.49
2023-02-16T13:01:27.418Z,10.41
2023-02-16T13:02:27.349Z,10.21
2023-02-16T13:03:27.365Z,10.42
2023-02-16T13:04:27.241Z,10.38
2023-02-16T13:05:27.206Z,10.33
2023-02-16T13:06:27.205Z,10.41
2023-02-16T13:07:27.157Z,10.25
2023-02-16T13:08:27.185Z,10.31
2023-02-16T13:09:27.101Z,10.33
2023-02-16T13:10:27.080Z,10.23
2023-02-16T13:11:27.092Z,10.38
2023-02-16T13:12:27.025Z,10.20
2023-02-16T13:13:27.000Z,10.17